createdAt,value
2023-03-15T00:01:11.744Z,8.63
2023-03-15T00:03:39.997Z,11.07
2023-03-15T00:06:07.153Z,10.27
2023-03-15T00:08:33.885Z,8.07
2023-03-15T00:11:01.077Z,9.97
2023-03-15T00:13:28.088Z,12.03
2023-03-15T00:15:57.645Z,6.73
2023-03-15T00:18:24.268Z,11.67
2023-03-15T00:20:50.957Z,8.90
2023-03-15T00:23:17.729Z,5.97
2023-03-15T00:25:45.989Z,4.97
2023-03-15T00:28:13.182Z,3.27
2023-03-15T00:30:40.464Z,6.70
2023-03-15T00:33:07.134Z,9.07
2023-03-15T00:35:34.475Z,5.63
2023-03-15T00:38:01.270Z,11.57
2023-03-15T00:40:28.008Z,4.20
2023-03-15T00:42:54.657Z,6.90
2023-03-15T00:45:22.324Z,8.07
2023-03-15T00:47:53.327Z,7.00
2023-03-15T00:50:20.790Z,10.43
2023-03-15T00:52:48.099Z,8.40
2023-03-15T00:55:17.251Z,5.23
2023-03-15T00:57:45.529Z,5.10
2023-03-15T01:00:16.801Z,7.10
2023-03-15T01:02:43.593Z,6.20
2023-03-15T01:05:10.894Z,3.70
2023-03-15T01:07:37.632Z,7.27
2023-03-15T01:10:05.823Z,6.27
2023-03-15T01:12:33.962Z,5.00
2023-03-15T01:15:01.574Z,4.53
2023-03-15T01:17:28.563Z,3.97
2023-03-15T01:19:55.292Z,7.23
2023-03-15T01:22:22.390Z,7.50
2023-03-15T01:24:48.985Z,6.57
2023-03-15T01:27:16.307Z,7.87
2023-03-15T01:29:43.140Z,8.63
2023-03-15T01:32:09.876Z,9.90
2023-03-15T01:34:36.846Z,16.17
2023-03-15T01:37:03.720Z,5.53
2023-03-15T01:39:31.023Z,5.43
2023-03-15T01:41:57.756Z,8.23
2023-03-15T01:44:24.604Z,7.03
2023-03-15T01:46:51.403Z,9.90
2023-03-15T01:49:24.440Z,17.17
2023-03-15T01:52:01.735Z,25.60
2023-03-15T01:54:34.621Z,28.57
2023-03-15T01:57:05.133Z,26.97
2023-03-15T01:59:41.321Z,23.80
2023-03-15T02:02:08.529Z,38.53
2023-03-15T02:04:39.318Z,27.17
2023-03-15T02:07:06.573Z,30.50
2023-03-15T02:09:42.798Z,12.93
2023-03-15T02:12:10.209Z,4.27
2023-03-15T02:14:37.227Z,2.57
2023-03-15T02:17:04.062Z,2.37
2023-03-15T02:19:48.994Z,2.10
2023-03-15T02:22:33.614Z,2.27
2023-03-15T02:25:30.000Z,4.53
2023-03-15T02:27:57.503Z,3.70
2023-03-15T02:30:24.362Z,2.77
2023-03-15T02:32:51.090Z,3.10
2023-03-15T02:35:32.348Z,2.70
2023-03-15T02:37:59.606Z,4.27
2023-03-15T02:40:29.008Z,4.80
2023-03-15T02:43:07.511Z,6.07
2023-03-15T02:45:35.642Z,6.03
2023-03-15T02:48:04.154Z,6.47
2023-03-15T02:50:30.830Z,7.67
2023-03-15T02:52:57.569Z,5.00
2023-03-15T02:55:24.221Z,8.07
2023-03-15T02:57:51.404Z,5.30
2023-03-15T03:00:18.770Z,4.47
2023-03-15T03:02:47.284Z,3.90
2023-03-15T03:05:15.390Z,5.63
2023-03-15T03:07:44.336Z,5.07
2023-03-15T03:10:16.162Z,4.93
2023-03-15T03:12:43.178Z,3.10
2023-03-15T03:15:11.486Z,3.20
2023-03-15T03:17:38.410Z,3.13
2023-03-15T03:20:08.218Z,2.63
2023-03-15T03:22:35.412Z,1.77
2023-03-15T03:25:02.671Z,1.80
2023-03-15T03:27:29.700Z,2.10
2023-03-15T03:29:56.336Z,2.08
2023-03-15T03:32:23.085Z,1.80
2023-03-15T03:34:49.869Z,2.10
2023-03-15T03:37:20.243Z,2.33
2023-03-15T03:39:47.246Z,2.83
2023-03-15T03:42:14.681Z,2.77
2023-03-15T03:44:41.530Z,2.90
2023-03-15T03:47:08.513Z,3.60
2023-03-15T03:49:35.181Z,3.53
2023-03-15T03:52:02.508Z,3.40
2023-03-15T03:54:29.250Z,3.03
2023-03-15T03:56:55.861Z,3.67
2023-03-15T03:59:22.535Z,3.17
2023-03-15T04:01:49.240Z,3.20
2023-03-15T04:04:15.991Z,3.10
2023-03-15T04:06:46.092Z,3.27
2023-03-15T04:09:14.105Z,2.83
2023-03-15T04:11:42.816Z,3.00
2023-03-15T04:14:14.070Z,3.47
2023-03-15T04:16:41.330Z,3.30
2023-03-15T04:19:09.440Z,3.07
2023-03-15T04:21:37.216Z,3.00
2023-03-15T04:24:04.222Z,3.70
2023-03-15T04:26:31.062Z,3.43
2023-03-15T04:28:59.026Z,3.60
2023-03-15T04:31:29.059Z,3.43
2023-03-15T04:33:56.850Z,3.60
2023-03-15T04:36:23.861Z,3.50
2023-03-15T04:38:50.993Z,4.27
2023-03-15T04:41:18.495Z,4.00
2023-03-15T04:43:45.424Z,4.10
2023-03-15T04:46:12.534Z,4.67
2023-03-15T04:48:39.317Z,5.13
2023-03-15T04:51:06.193Z,7.70
2023-03-15T04:53:33.137Z,19.87
2023-03-15T04:55:59.889Z,26.00
2023-03-15T04:58:26.633Z,24.60
2023-03-15T05:00:54.316Z,16.97
2023-03-15T05:03:21.161Z,18.60
2023-03-15T05:05:47.832Z,16.93
2023-03-15T05:08:14.766Z,13.23
2023-03-15T05:10:41.407Z,15.23
2023-03-15T05:13:08.063Z,18.47
2023-03-15T05:15:34.696Z,16.17
2023-03-15T05:18:01.409Z,26.97
2023-03-15T05:20:28.172Z,19.57
2023-03-15T05:22:54.919Z,14.03
2023-03-15T05:25:21.898Z,9.43
2023-03-15T05:27:48.882Z,7.63
2023-03-15T05:30:16.362Z,7.53
2023-03-15T05:32:45.052Z,7.00
2023-03-15T05:35:12.619Z,8.00
2023-03-15T05:37:39.479Z,8.53
2023-03-15T05:40:08.362Z,8.07
2023-03-15T05:42:35.532Z,8.80
2023-03-15T05:45:02.389Z,7.97
2023-03-15T05:47:29.176Z,8.43
2023-03-15T05:49:55.946Z,9.63
2023-03-15T05:52:22.798Z,9.73
2023-03-15T05:54:49.704Z,13.93
2023-03-15T05:57:16.401Z,12.20
2023-03-15T05:59:43.127Z,11.40
2023-03-15T06:02:09.896Z,10.13
2023-03-15T06:04:38.110Z,9.57
2023-03-15T06:07:05.333Z,9.90
2023-03-15T06:09:32.223Z,9.10
2023-03-15T06:11:59.351Z,9.13
2023-03-15T06:14:27.517Z,10.37
2023-03-15T06:16:54.488Z,9.77
2023-03-15T06:19:21.584Z,10.27
2023-03-15T06:21:53.262Z,9.20
2023-03-15T06:24:20.025Z,9.30
2023-03-15T06:26:46.772Z,9.47
2023-03-15T06:29:13.542Z,9.97
2023-03-15T06:31:40.233Z,10.77
2023-03-15T06:34:07.136Z,10.97
2023-03-15T06:36:33.795Z,12.80
2023-03-15T06:39:00.531Z,12.43
2023-03-15T06:41:27.500Z,9.40
2023-03-15T06:43:54.292Z,14.13
2023-03-15T06:46:21.121Z,13.33
2023-03-15T06:48:47.879Z,11.90
2023-03-15T06:51:14.559Z,15.53
2023-03-15T06:53:41.253Z,14.63
2023-03-15T06:56:08.103Z,11.07
2023-03-15T06:58:34.840Z,10.00
2023-03-15T07:01:01.606Z,9.37
2023-03-15T07:03:28.396Z,9.50
2023-03-15T07:05:55.316Z,12.37
2023-03-15T07:08:23.530Z,9.70
2023-03-15T07:10:50.607Z,10.17
2023-03-15T07:13:18.775Z,10.40
2023-03-15T07:15:45.915Z,12.47
2023-03-15T07:18:12.715Z,9.03
2023-03-15T07:20:39.420Z,10.67
2023-03-15T07:23:06.159Z,12.13
2023-03-15T07:25:35.939Z,8.10
2023-03-15T07:28:08.913Z,7.87
2023-03-15T07:30:35.645Z,12.37
2023-03-15T07:33:02.397Z,12.60
2023-03-15T07:35:29.168Z,10.60
2023-03-15T07:37:55.864Z,9.77
2023-03-15T07:40:22.565Z,13.07
2023-03-15T07:42:49.234Z,12.03
2023-03-15T07:45:16.051Z,10.50
2023-03-15T07:47:45.812Z,9.83
2023-03-15T07:50:14.545Z,9.70
2023-03-15T07:52:42.417Z,9.07
2023-03-15T07:55:09.155Z,10.47
2023-03-15T07:57:35.981Z,9.27
2023-03-15T08:00:02.701Z,10.57
2023-03-15T08:02:33.524Z,10.00
2023-03-15T08:05:00.575Z,9.80
2023-03-15T08:07:27.368Z,9.50
2023-03-15T08:09:58.236Z,10.83
2023-03-15T08:12:25.437Z,10.63
2023-03-15T08:14:54.529Z,10.73
2023-03-15T08:17:21.337Z,7.70
2023-03-15T08:19:48.063Z,11.27
2023-03-15T08:22:14.769Z,10.60
2023-03-15T08:24:41.450Z,10.40
2023-03-15T08:27:08.233Z,9.60
2023-03-15T08:29:34.925Z,12.20
2023-03-15T08:32:01.711Z,10.37
2023-03-15T08:34:28.635Z,11.37
2023-03-15T08:36:55.523Z,13.13
2023-03-15T08:39:24.121Z,10.50
2023-03-15T08:41:51.550Z,10.43
2023-03-15T08:44:18.304Z,9.00
2023-03-15T08:46:45.077Z,14.23
2023-03-15T08:49:11.818Z,13.60
2023-03-15T08:51:38.571Z,10.63
2023-03-15T08:54:05.402Z,8.70
2023-03-15T08:56:32.752Z,9.30
2023-03-15T08:58:59.847Z,7.97
2023-03-15T09:01:26.615Z,7.60
2023-03-15T09:03:53.292Z,7.10
2023-03-15T09:06:19.991Z,9.40
2023-03-15T09:08:46.761Z,9.27
2023-03-15T09:11:14.030Z,7.57
2023-03-15T09:13:40.850Z,5.83
2023-03-15T09:16:08.105Z,12.90
2023-03-15T09:18:34.751Z,7.17
2023-03-15T09:21:01.917Z,8.93
2023-03-15T09:23:37.261Z,8.87
2023-03-15T09:26:04.008Z,8.47
2023-03-15T09:28:30.670Z,7.10
2023-03-15T09:30:59.890Z,25.77
2023-03-15T09:33:27.265Z,18.23
2023-03-15T09:35:53.931Z,10.43
2023-03-15T09:38:20.625Z,10.13
2023-03-15T09:40:47.520Z,8.50
2023-03-15T09:43:32.141Z,8.00
2023-03-15T09:46:02.879Z,9.97
2023-03-15T09:48:57.177Z,10.97
2023-03-15T09:51:51.217Z,12.17
2023-03-15T09:54:45.040Z,8.03
2023-03-15T09:57:18.759Z,10.17
2023-03-15T09:59:48.581Z,8.10
2023-03-15T10:02:21.953Z,11.67
2023-03-15T10:04:49.999Z,10.63
2023-03-15T10:07:16.828Z,8.93
2023-03-15T10:09:43.803Z,7.67
2023-03-15T10:12:20.949Z,7.20
2023-03-15T10:15:15.860Z,9.43
2023-03-15T10:18:07.218Z,8.13
2023-03-15T10:20:38.332Z,8.67
2023-03-15T10:23:24.141Z,8.47
2023-03-15T10:25:51.959Z,9.30
2023-03-15T10:28:30.610Z,7.77
2023-03-15T10:31:01.314Z,7.30
2023-03-15T10:33:39.531Z,9.73
2023-03-15T10:36:15.465Z,11.10
2023-03-15T10:38:42.916Z,10.13
2023-03-15T10:41:15.286Z,8.70
2023-03-15T10:43:42.195Z,7.90
2023-03-15T10:46:14.487Z,6.47
2023-03-15T10:48:58.616Z,6.73
2023-03-15T10:51:26.812Z,11.57
2023-03-15T10:53:54.371Z,9.43
2023-03-15T10:56:29.032Z,9.80
2023-03-15T10:59:11.365Z,8.63
2023-03-15T11:01:38.924Z,12.30
2023-03-15T11:04:20.336Z,11.20
2023-03-15T11:06:59.223Z,7.43
2023-03-15T11:09:27.286Z,12.50
2023-03-15T11:12:01.024Z,9.80
2023-03-15T11:14:42.530Z,7.00
2023-03-15T11:17:17.295Z,9.07
2023-03-15T11:19:52.074Z,6.03
2023-03-15T11:22:18.670Z,6.60
2023-03-15T11:24:45.344Z,8.00
2023-03-15T11:27:14.827Z,7.63
2023-03-15T11:29:44.368Z,4.40
2023-03-15T11:32:18.099Z,5.77
2023-03-15T11:34:58.198Z,15.03
2023-03-15T11:37:47.743Z,22.73
2023-03-15T11:40:23.227Z,11.23
2023-03-15T11:42:53.931Z,5.30
2023-03-15T11:45:29.952Z,6.70
2023-03-15T11:47:59.961Z,7.17
2023-03-15T11:50:26.762Z,3.93
2023-03-15T11:52:53.937Z,3.07
2023-03-15T11:55:26.229Z,4.30
2023-03-15T11:57:53.523Z,9.37
2023-03-15T12:00:22.960Z,4.33
2023-03-15T12:02:59.591Z,6.03
2023-03-15T12:05:41.772Z,5.13
2023-03-15T12:08:21.201Z,3.70
2023-03-15T12:10:49.886Z,3.80
2023-03-15T12:13:25.841Z,4.43
2023-03-15T12:15:59.343Z,5.73
2023-03-15T12:18:46.283Z,7.20
2023-03-15T12:21:16.125Z,10.33
2023-03-15T12:23:46.808Z,6.23
2023-03-15T12:26:27.262Z,5.70
2023-03-15T12:29:08.490Z,7.33
2023-03-15T12:31:53.918Z,4.57
2023-03-15T12:34:45.416Z,6.57
2023-03-15T12:37:38.110Z,7.00
2023-03-15T12:40:19.055Z,8.37
2023-03-15T12:42:48.948Z,4.90
2023-03-15T12:45:15.584Z,2.37
2023-03-15T12:47:54.448Z,4.03
2023-03-15T12:50:45.944Z,5.20
2023-03-15T12:53:22.997Z,2.17
2023-03-15T12:55:59.536Z,2.20
2023-03-15T12:58:36.546Z,4.07
2023-03-15T13:01:05.954Z,4.10
2023-03-15T13:03:34.895Z,3.33
2023-03-15T13:06:23.154Z,3.03
2023-03-15T13:09:36.652Z,4.63
2023-03-15T13:12:51.139Z,4.00
2023-03-15T13:15:22.937Z,3.03
2023-03-15T13:17:57.785Z,5.10
2023-03-15T13:21:11.983Z,5.07
2023-03-15T13:23:39.765Z,4.33
2023-03-15T13:26:20.358Z,3.47
2023-03-15T13:29:17.809Z,5.70
2023-03-15T13:31:46.085Z,6.43
2023-03-15T13:34:22.154Z,2.37
2023-03-15T13:36:57.443Z,2.57
2023-03-15T13:39:27.348Z,3.93
2023-03-15T13:42:02.143Z,4.30
2023-03-15T13:44:30.533Z,2.43
2023-03-15T13:46:58.090Z,3.40
2023-03-15T13:49:26.121Z,3.17
2023-03-15T13:51:53.434Z,2.27
2023-03-15T13:54:33.008Z,1.97
2023-03-15T13:57:01.623Z,1.67
2023-03-15T13:59:35.908Z,1.40
2023-03-15T14:02:04.815Z,1.83
2023-03-15T14:04:36.274Z,2.77
2023-03-15T14:07:13.788Z,2.90
2023-03-15T14:09:40.906Z,2.17
2023-03-15T14:12:19.069Z,2.47
2023-03-15T14:14:54.257Z,2.13
2023-03-15T14:17:27.160Z,2.60
2023-03-15T14:19:55.515Z,2.27
2023-03-15T14:22:22.835Z,2.37
2023-03-15T14:24:51.857Z,5.13
2023-03-15T14:27:25.510Z,5.20
2023-03-15T14:29:57.729Z,2.07
2023-03-15T14:32:31.342Z,5.30
2023-03-15T14:35:08.267Z,2.80
2023-03-15T14:37:42.781Z,2.50
2023-03-15T14:40:36.959Z,2.37
2023-03-15T14:43:05.765Z,4.40
2023-03-15T14:45:43.367Z,1.67
2023-03-15T14:48:28.027Z,2.13
2023-03-15T14:50:55.518Z,2.70
2023-03-15T14:53:24.547Z,2.53
2023-03-15T14:55:51.309Z,1.67
2023-03-15T14:58:27.250Z,1.50
2023-03-15T15:00:58.013Z,4.17
2023-03-15T15:03:28.594Z,3.73
2023-03-15T15:05:55.345Z,3.40
2023-03-15T15:08:24.854Z,2.67
2023-03-15T15:10:53.076Z,2.17
2023-03-15T15:13:25.325Z,2.80
2023-03-15T15:15:56.182Z,2.23
2023-03-15T15:18:25.810Z,6.53
2023-03-15T15:20:55.924Z,5.03
2023-03-15T15:23:26.159Z,4.13
2023-03-15T15:25:56.990Z,6.87
2023-03-15T15:28:33.990Z,2.17
2023-03-15T15:31:02.490Z,4.53
2023-03-15T15:33:29.157Z,2.47
2023-03-15T15:35:56.738Z,2.13
2023-03-15T15:38:33.307Z,4.37
2023-03-15T15:41:00.037Z,2.60
2023-03-15T15:43:26.721Z,2.27
2023-03-15T15:45:53.614Z,1.43
2023-03-15T15:48:20.405Z,2.23
2023-03-15T15:50:47.181Z,3.03
2023-03-15T15:53:17.463Z,5.50
2023-03-15T15:55:44.494Z,3.47
2023-03-15T15:58:12.256Z,4.13
2023-03-15T16:00:38.972Z,1.20
2023-03-15T16:03:15.255Z,2.97
2023-03-15T16:05:48.572Z,1.33
2023-03-15T16:08:25.796Z,2.63
2023-03-15T16:10:52.600Z,2.33
2023-03-15T16:13:20.702Z,2.77
2023-03-15T16:15:47.557Z,1.67
2023-03-15T16:18:14.401Z,1.63
2023-03-15T16:20:41.591Z,3.33
2023-03-15T16:23:22.015Z,1.83
2023-03-15T16:25:51.342Z,3.40
2023-03-15T16:28:18.716Z,1.63
2023-03-15T16:30:47.036Z,2.97
2023-03-15T16:33:20.004Z,2.83
2023-03-15T16:35:48.779Z,2.70
2023-03-15T16:38:17.783Z,2.73
2023-03-15T16:40:45.784Z,2.97
2023-03-15T16:43:13.863Z,2.53
2023-03-15T16:45:41.169Z,2.37
2023-03-15T16:48:08.308Z,2.93
2023-03-15T16:50:35.629Z,2.73
2023-03-15T16:53:04.843Z,2.17
2023-03-15T16:55:35.114Z,3.80
2023-03-15T16:58:04.587Z,2.60
2023-03-15T17:00:31.871Z,3.73
2023-03-15T17:03:01.783Z,5.03
2023-03-15T17:05:28.584Z,3.87
2023-03-15T17:07:55.546Z,3.17
2023-03-15T17:10:25.048Z,2.77
2023-03-15T17:12:52.660Z,5.73
2023-03-15T17:15:21.428Z,4.57
2023-03-15T17:17:52.135Z,3.23
2023-03-15T17:20:22.035Z,6.30
2023-03-15T17:22:57.463Z,2.13
2023-03-15T17:25:24.551Z,2.80
2023-03-15T17:27:51.828Z,4.47
2023-03-15T17:30:33.359Z,4.37
2023-03-15T17:33:00.793Z,4.20
2023-03-15T17:35:30.338Z,4.10
2023-03-15T17:37:57.515Z,2.63
2023-03-15T17:40:34.229Z,4.07
2023-03-15T17:43:07.136Z,1.77
2023-03-15T17:45:34.701Z,3.50
2023-03-15T17:48:02.292Z,4.70
2023-03-15T17:50:31.552Z,3.27
2023-03-15T17:53:02.745Z,20.47
2023-03-15T17:55:31.607Z,8.80
2023-03-15T17:57:58.411Z,8.17
2023-03-15T18:00:25.414Z,5.77
2023-03-15T18:02:55.856Z,2.43
2023-03-15T18:05:25.419Z,4.97
2023-03-15T18:08:00.353Z,4.27
2023-03-15T18:10:34.052Z,2.00
2023-03-15T18:13:00.908Z,2.47
2023-03-15T18:15:27.763Z,5.83
2023-03-15T18:17:54.605Z,3.53
2023-03-15T18:20:24.373Z,3.63
2023-03-15T18:22:51.862Z,4.23
2023-03-15T18:25:23.935Z,4.03
2023-03-15T18:27:51.172Z,5.73
2023-03-15T18:30:20.755Z,3.63
2023-03-15T18:32:48.718Z,3.63
2023-03-15T18:35:26.453Z,6.40
2023-03-15T18:37:56.079Z,5.10
2023-03-15T18:40:23.102Z,4.70
2023-03-15T18:42:50.126Z,3.17
2023-03-15T18:45:20.955Z,5.20
2023-03-15T18:47:48.328Z,4.03
2023-03-15T18:50:15.878Z,5.30
2023-03-15T18:52:43.169Z,2.80
2023-03-15T18:55:12.232Z,4.93
2023-03-15T18:57:41.687Z,3.50
2023-03-15T19:00:13.766Z,4.73
2023-03-15T19:02:50.342Z,5.07
2023-03-15T19:05:17.737Z,4.37
2023-03-15T19:07:47.281Z,6.00
2023-03-15T19:10:16.279Z,3.87
2023-03-15T19:12:46.437Z,4.23
2023-03-15T19:15:17.787Z,5.37
2023-03-15T19:17:48.776Z,5.60
2023-03-15T19:20:18.635Z,7.03
2023-03-15T19:22:45.398Z,4.67
2023-03-15T19:25:14.020Z,6.57
2023-03-15T19:27:44.346Z,5.40
2023-03-15T19:30:16.439Z,7.23
2023-03-15T19:32:45.902Z,4.20
2023-03-15T19:35:12.789Z,3.93
2023-03-15T19:37:39.833Z,6.80
2023-03-15T19:40:09.730Z,6.57
2023-03-15T19:42:36.491Z,4.47
2023-03-15T19:45:03.439Z,5.97
2023-03-15T19:47:30.132Z,4.83
2023-03-15T19:49:56.942Z,5.03
2023-03-15T19:52:23.868Z,5.07
2023-03-15T19:54:51.982Z,7.63
2023-03-15T19:57:18.724Z,6.57
2023-03-15T19:59:45.517Z,5.40
2023-03-15T20:02:14.903Z,6.30
2023-03-15T20:04:41.869Z,5.50
2023-03-15T20:07:11.298Z,6.90
2023-03-15T20:09:41.543Z,4.90
2023-03-15T20:12:11.155Z,6.47
2023-03-15T20:14:38.051Z,6.50
2023-03-15T20:17:05.724Z,6.27
2023-03-15T20:19:32.889Z,5.47
2023-03-15T20:21:59.634Z,5.73
2023-03-15T20:24:26.413Z,4.90
2023-03-15T20:26:53.483Z,3.60
2023-03-15T20:29:22.607Z,4.67
2023-03-15T20:31:50.008Z,6.00
2023-03-15T20:34:17.548Z,4.57
2023-03-15T20:36:44.986Z,5.60
2023-03-15T20:39:11.849Z,7.30
2023-03-15T20:41:39.398Z,6.10
2023-03-15T20:44:06.693Z,4.97
2023-03-15T20:46:34.206Z,4.73
2023-03-15T20:49:01.060Z,4.00
2023-03-15T20:51:28.068Z,4.00
2023-03-15T20:53:55.017Z,4.13
2023-03-15T20:56:22.163Z,6.43
2023-03-15T20:58:48.950Z,6.33
2023-03-15T21:01:17.079Z,5.47
2023-03-15T21:03:45.196Z,3.17
2023-03-15T21:06:12.960Z,9.23
2023-03-15T21:08:39.937Z,3.23
2023-03-15T21:11:06.853Z,5.23
2023-03-15T21:13:35.004Z,6.30
2023-03-15T21:16:04.432Z,3.23
2023-03-15T21:18:32.307Z,3.90
2023-03-15T21:21:01.696Z,6.00
2023-03-15T21:23:31.368Z,4.70
2023-03-15T21:25:59.348Z,4.00
2023-03-15T21:28:26.403Z,4.53
2023-03-15T21:30:54.282Z,7.10
2023-03-15T21:33:26.028Z,4.17
2023-03-15T21:35:53.471Z,3.57
2023-03-15T21:38:20.241Z,4.27
2023-03-15T21:40:48.416Z,6.63
2023-03-15T21:43:15.073Z,6.97
2023-03-15T21:45:42.180Z,4.73
2023-03-15T21:48:09.056Z,3.00
2023-03-15T21:50:36.625Z,5.03
2023-03-15T21:53:03.884Z,6.63
2023-03-15T21:55:33.788Z,4.80
2023-03-15T21:58:04.860Z,6.43
2023-03-15T22:00:32.627Z,4.53
2023-03-15T22:02:59.340Z,5.67
2023-03-15T22:05:25.972Z,3.53
2023-03-15T22:07:53.108Z,3.33
2023-03-15T22:10:19.933Z,2.80
2023-03-15T22:12:47.111Z,5.47
2023-03-15T22:15:14.392Z,4.00
2023-03-15T22:17:41.091Z,5.07
2023-03-15T22:20:17.272Z,5.10
2023-03-15T22:22:45.631Z,3.80
2023-03-15T22:25:12.914Z,4.00
2023-03-15T22:27:40.555Z,4.90
2023-03-15T22:30:08.652Z,5.67
2023-03-15T22:32:35.342Z,4.07
2023-03-15T22:35:02.270Z,4.07
2023-03-15T22:37:28.858Z,3.27
2023-03-15T22:39:55.608Z,2.50
2023-03-15T22:42:22.378Z,5.43
2023-03-15T22:44:49.101Z,3.77
2023-03-15T22:47:15.764Z,4.00
2023-03-15T22:49:42.414Z,4.17
2023-03-15T22:52:14.526Z,4.67
2023-03-15T22:54:43.996Z,5.47
2023-03-15T22:57:11.483Z,2.33
2023-03-15T22:59:38.956Z,3.47
2023-03-15T23:02:05.713Z,3.80
2023-03-15T23:04:32.414Z,3.50
2023-03-15T23:06:59.095Z,3.37
2023-03-15T23:09:26.214Z,2.67
2023-03-15T23:11:52.945Z,2.90
2023-03-15T23:14:19.617Z,3.63
2023-03-15T23:16:46.369Z,4.97
2023-03-15T23:19:13.573Z,3.37
2023-03-15T23:21:40.553Z,4.53
2023-03-15T23:24:08.079Z,4.07
2023-03-15T23:26:37.656Z,4.37
2023-03-15T23:29:16.241Z,3.83
2023-03-15T23:31:43.188Z,5.37
2023-03-15T23:34:09.919Z,5.80
2023-03-15T23:36:36.637Z,2.90
2023-03-15T23:39:03.633Z,2.53
2023-03-15T23:41:30.411Z,2.50
2023-03-15T23:43:57.056Z,2.90
2023-03-15T23:46:23.783Z,2.13
2023-03-15T23:48:52.494Z,2.70
2023-03-15T23:51:19.867Z,4.50
2023-03-15T23:53:46.647Z,2.97
2023-03-15T23:56:13.417Z,2.20
2023-03-15T23:58:40.835Z,2.37
